createdAt,value
2023-01-15T00:04:10.147Z,1.43
2023-01-15T00:09:09.459Z,0.63
2023-01-15T00:14:08.773Z,1.47
2023-01-15T00:19:08.061Z,0.66
2023-01-15T00:24:07.376Z,1.46
2023-01-15T00:29:06.664Z,0.64
2023-01-15T00:34:05.920Z,1.39
2023-01-15T00:39:05.206Z,0.64
2023-01-15T00:44:04.539Z,0.58
2023-01-15T00:49:03.683Z,0.58
2023-01-15T00:54:04.042Z,0.46
2023-01-15T00:59:02.140Z,-0.99
2023-01-15T01:04:01.446Z,0.46
2023-01-15T01:09:01.746Z,0.31
2023-01-15T01:14:01.018Z,-0.36
2023-01-15T01:19:00.305Z,0.31
2023-01-15T01:23:58.619Z,-1.07
2023-01-15T01:28:58.908Z,-1.89
2023-01-15T01:33:57.221Z,-1.89
2023-01-15T01:38:57.543Z,-0.52
2023-01-15T01:43:55.843Z,-0.52
2023-01-15T01:48:55.182Z,-1.35
2023-01-15T01:53:54.483Z,-0.72
2023-01-15T01:58:53.813Z,-2.02
2023-01-15T02:03:53.123Z,-0.10
2023-01-15T02:08:52.439Z,-0.10
2023-01-15T02:13:53.739Z,-0.10
2023-01-15T02:18:51.007Z,0.48
2023-01-15T02:23:51.260Z,0.48
2023-01-15T02:28:49.566Z,-0.36
2023-01-15T02:33:50.847Z,-0.36
2023-01-15T02:38:49.160Z,0.20
2023-01-15T02:43:47.452Z,0.20
2023-01-15T02:48:46.770Z,-0.36
2023-01-15T02:53:48.061Z,-0.36
2023-01-15T02:58:45.330Z,0.20
2023-01-15T03:03:45.660Z,0.20
2023-01-15T03:08:42.985Z,0.20
2023-01-15T03:13:44.377Z,0.75
2023-01-15T03:18:42.500Z,0.20
2023-01-15T03:23:41.805Z,0.20
2023-01-15T03:28:41.112Z,0.20
2023-01-15T03:33:42.415Z,-0.65
2023-01-15T03:38:39.726Z,-1.21
2023-01-15T03:43:39.847Z,-0.65
2023-01-15T03:48:38.170Z,-0.65
2023-01-15T03:53:37.320Z,-0.11
2023-01-15T03:58:36.607Z,-0.11
2023-01-15T04:03:36.923Z,-0.11
2023-01-15T04:08:35.242Z,-0.11
2023-01-15T04:13:35.384Z,-0.11
2023-01-15T04:18:33.721Z,-0.11
2023-01-15T04:23:33.878Z,-0.11
2023-01-15T04:28:32.172Z,-0.11
2023-01-15T04:33:32.499Z,-0.11
2023-01-15T04:38:33.906Z,-0.11
2023-01-15T04:43:29.971Z,-0.11
2023-01-15T04:48:31.374Z,-0.11
2023-01-15T04:53:29.458Z,-0.11
2023-01-15T04:58:28.745Z,-0.11
2023-01-15T05:03:27.054Z,-0.11
2023-01-15T05:08:27.340Z,-0.65
2023-01-15T05:13:26.665Z,-0.11
2023-01-15T05:18:24.978Z,-0.11
2023-01-15T05:23:24.297Z,-0.11
2023-01-15T05:28:23.443Z,-0.11
2023-01-15T05:33:23.756Z,0.41
2023-01-15T05:38:22.069Z,0.41
2023-01-15T05:43:22.393Z,0.41
2023-01-15T05:48:21.709Z,0.41
2023-01-15T05:53:21.039Z,0.41
2023-01-15T05:58:20.364Z,-0.11
2023-01-15T06:03:20.726Z,-0.44
2023-01-15T06:08:17.915Z,-1.50
2023-01-15T06:13:18.051Z,-0.44
2023-01-15T06:18:16.389Z,-0.44
2023-01-15T06:23:15.525Z,-0.96
2023-01-15T06:28:14.709Z,-0.44
2023-01-15T06:33:13.823Z,-0.96
2023-01-15T06:38:14.153Z,-0.44
2023-01-15T06:43:12.491Z,-0.44
2023-01-15T06:48:16.300Z,-0.44
2023-01-15T06:53:12.799Z,-0.44
2023-01-15T06:58:11.115Z,-0.44
2023-01-15T07:03:11.425Z,-0.44
2023-01-15T07:08:08.731Z,-0.44
2023-01-15T07:13:08.029Z,-0.96
2023-01-15T07:18:07.336Z,-0.44
2023-01-15T07:23:06.683Z,-0.44
2023-01-15T07:28:04.997Z,-0.44
2023-01-15T07:33:05.349Z,-0.44
2023-01-15T07:38:04.485Z,-0.44
2023-01-15T07:43:03.835Z,-0.44
2023-01-15T07:48:03.970Z,-0.44
2023-01-15T07:53:03.283Z,-0.44
2023-01-15T07:58:01.616Z,-0.44
2023-01-15T08:03:01.980Z,-0.44
2023-01-15T08:08:01.163Z,-0.44
2023-01-15T08:13:00.268Z,-0.44
2023-01-15T08:17:58.629Z,-0.44
2023-01-15T08:23:01.794Z,-0.44
2023-01-15T08:27:57.343Z,-0.44
2023-01-15T08:32:58.282Z,-0.44
2023-01-15T08:37:55.606Z,-0.44
2023-01-15T08:42:56.716Z,-0.44
2023-01-15T08:47:54.101Z,-0.44
2023-01-15T08:52:54.232Z,-0.44
2023-01-15T08:57:52.537Z,-0.44
2023-01-15T09:02:50.897Z,-0.44
2023-01-15T09:07:52.024Z,-0.44
2023-01-15T09:12:51.334Z,-0.44
2023-01-15T09:17:49.675Z,-0.44
2023-01-15T09:22:48.997Z,-0.44
2023-01-15T09:27:48.322Z,-0.44
2023-01-15T09:32:47.501Z,-0.44
2023-01-15T09:37:47.624Z,-0.96
2023-01-15T09:42:47.956Z,-0.44
2023-01-15T09:47:45.261Z,-0.44
2023-01-15T09:52:44.593Z,-0.44
2023-01-15T09:57:42.733Z,-0.32
2023-01-15T10:02:43.057Z,1.04
2023-01-15T10:07:42.357Z,2.30
2023-01-15T10:12:40.672Z,3.46
2023-01-15T10:17:40.947Z,3.64
2023-01-15T10:22:42.236Z,3.29
2023-01-15T10:27:41.536Z,2.57
2023-01-15T10:32:38.840Z,2.57
2023-01-15T10:37:38.136Z,2.69
2023-01-15T10:42:37.473Z,2.77
2023-01-15T10:47:36.777Z,2.79
2023-01-15T10:52:36.095Z,3.21
2023-01-15T10:57:36.434Z,2.98
2023-01-15T11:02:34.712Z,2.98
2023-01-15T11:07:33.893Z,2.45
2023-01-15T11:12:33.204Z,2.98
2023-01-15T11:17:32.521Z,3.13
2023-01-15T11:22:31.847Z,3.50
2023-01-15T11:27:31.188Z,2.45
2023-01-15T11:32:31.526Z,3.59
2023-01-15T11:37:29.853Z,2.75
2023-01-15T11:42:29.136Z,2.98
2023-01-15T11:47:28.444Z,2.45
2023-01-15T11:52:27.765Z,2.64
2023-01-15T11:57:29.077Z,2.45
2023-01-15T12:02:26.536Z,2.41
2023-01-15T12:07:25.682Z,1.90
2023-01-15T12:12:24.955Z,1.90
2023-01-15T12:17:29.354Z,1.90
2023-01-15T12:22:23.414Z,1.90
2023-01-15T12:27:22.735Z,2.17
2023-01-15T12:32:23.028Z,1.90
2023-01-15T12:37:21.456Z,2.17
2023-01-15T12:42:20.735Z,1.90
2023-01-15T12:47:19.815Z,2.45
2023-01-15T12:52:20.123Z,1.90
2023-01-15T12:57:19.452Z,1.58
2023-01-15T13:02:17.856Z,1.33
2023-01-15T13:07:17.987Z,1.33
2023-01-15T13:12:19.249Z,1.90
2023-01-15T13:17:15.354Z,1.90
2023-01-15T13:22:15.659Z,1.33
2023-01-15T13:27:14.953Z,1.05
2023-01-15T13:32:14.340Z,2.17
2023-01-15T13:37:13.458Z,1.58
2023-01-15T13:42:12.801Z,1.33
2023-01-15T13:47:11.136Z,1.05
2023-01-15T13:52:10.082Z,1.58
2023-01-15T13:57:10.408Z,1.60
2023-01-15T14:02:09.722Z,1.33
2023-01-15T14:07:10.017Z,2.17
2023-01-15T14:12:07.291Z,1.97
2023-01-15T14:17:07.267Z,1.79
2023-01-15T14:22:05.786Z,2.11
2023-01-15T14:27:05.891Z,1.29
2023-01-15T14:32:04.509Z,2.11
2023-01-15T14:37:03.531Z,2.94
2023-01-15T14:42:03.672Z,2.11
2023-01-15T14:47:02.144Z,1.97
2023-01-15T14:52:02.552Z,1.97
2023-01-15T14:57:00.531Z,1.79
2023-01-15T15:01:59.987Z,1.97
2023-01-15T15:06:58.082Z,2.94
2023-01-15T15:11:58.431Z,3.63
2023-01-15T15:16:57.741Z,2.80
2023-01-15T15:21:58.042Z,2.80
2023-01-15T15:26:56.530Z,2.94
2023-01-15T15:31:55.692Z,2.11
2023-01-15T15:36:54.823Z,1.97
2023-01-15T15:41:53.980Z,2.62
2023-01-15T15:46:53.988Z,2.80
2023-01-15T15:51:51.663Z,2.80
2023-01-15T15:56:52.645Z,1.97
2023-01-15T16:01:52.257Z,2.62
2023-01-15T16:06:50.078Z,3.46
2023-01-15T16:11:49.233Z,3.46
2023-01-15T16:16:53.048Z,2.62
2023-01-15T16:21:48.934Z,3.25
2023-01-15T16:26:48.137Z,2.41
2023-01-15T16:31:47.154Z,3.01
2023-01-15T16:36:45.605Z,2.62
2023-01-15T16:41:44.614Z,3.46
2023-01-15T16:46:44.001Z,3.46
2023-01-15T16:51:47.028Z,2.62
2023-01-15T16:56:43.135Z,3.46
2023-01-15T17:01:42.813Z,4.09
2023-01-15T17:06:41.802Z,2.62
2023-01-15T17:11:40.783Z,3.25
2023-01-15T17:16:41.084Z,3.25
2023-01-15T17:21:39.738Z,3.25
2023-01-15T17:26:40.056Z,3.46
2023-01-15T17:31:41.011Z,3.25
2023-01-15T17:36:36.379Z,3.25
2023-01-15T17:41:35.655Z,3.25
2023-01-15T17:46:35.702Z,3.86
2023-01-15T17:51:34.213Z,4.29
2023-01-15T17:56:35.042Z,4.46
2023-01-15T18:01:33.756Z,3.76
2023-01-15T18:06:31.931Z,3.76
2023-01-15T18:11:33.069Z,2.80
2023-01-15T18:16:32.398Z,2.80
2023-01-15T18:21:29.388Z,3.46
2023-01-15T18:26:29.791Z,2.80
2023-01-15T18:31:28.090Z,2.80
2023-01-15T18:36:27.417Z,2.94
2023-01-15T18:41:28.687Z,2.94
2023-01-15T18:46:27.057Z,2.11
2023-01-15T18:51:24.833Z,3.25
2023-01-15T18:56:24.169Z,3.46
2023-01-15T19:01:24.546Z,1.97
2023-01-15T19:06:25.664Z,2.41
2023-01-15T19:11:24.009Z,2.62
2023-01-15T19:16:26.968Z,2.80
2023-01-15T19:21:21.518Z,2.80
2023-01-15T19:26:21.723Z,3.63
2023-01-15T19:31:19.446Z,3.85
2023-01-15T19:36:19.239Z,3.85
2023-01-15T19:41:18.899Z,3.76
2023-01-15T19:46:18.291Z,3.03
2023-01-15T19:51:16.498Z,3.76
2023-01-15T19:56:16.657Z,1.97
2023-01-15T20:01:14.586Z,4.29
2023-01-15T20:06:14.142Z,3.63
2023-01-15T20:11:13.947Z,2.94
2023-01-15T20:16:13.606Z,4.58
2023-01-15T20:21:10.413Z,3.85
2023-01-15T20:26:10.607Z,3.85
2023-01-15T20:31:10.210Z,3.85
2023-01-15T20:36:11.552Z,3.85
2023-01-15T20:41:08.471Z,3.76
2023-01-15T20:46:07.867Z,3.76
2023-01-15T20:51:08.007Z,3.76
2023-01-15T20:56:07.421Z,2.94
2023-01-15T21:01:07.418Z,2.80
2023-01-15T21:06:05.868Z,2.80
2023-01-15T21:11:05.095Z,3.63
2023-01-15T21:16:03.077Z,3.46
2023-01-15T21:21:04.160Z,3.46
2023-01-15T21:26:02.352Z,2.80
2023-01-15T21:31:00.555Z,2.62
2023-01-15T21:35:59.740Z,3.46
2023-01-15T21:40:58.967Z,3.46
2023-01-15T21:45:58.256Z,3.46
2023-01-15T21:50:58.469Z,3.46
2023-01-15T21:55:57.671Z,3.46
2023-01-15T22:00:55.912Z,3.46
2023-01-15T22:05:56.149Z,3.46
2023-01-15T22:10:54.347Z,3.46
2023-01-15T22:15:53.551Z,3.46
2023-01-15T22:20:51.758Z,3.46
2023-01-15T22:25:51.953Z,3.46
2023-01-15T22:30:52.191Z,3.46
2023-01-15T22:35:50.358Z,2.62
2023-01-15T22:40:51.569Z,4.58
2023-01-15T22:45:48.755Z,4.67
2023-01-15T22:50:47.941Z,3.63
2023-01-15T22:55:47.167Z,3.63
2023-01-15T23:00:46.340Z,2.80
2023-01-15T23:05:45.527Z,3.46
2023-01-15T23:10:44.719Z,2.80
2023-01-15T23:15:43.920Z,3.46
2023-01-15T23:20:43.147Z,3.63
2023-01-15T23:25:42.358Z,3.76
2023-01-15T23:30:41.569Z,2.80
2023-01-15T23:35:40.735Z,1.97
2023-01-15T23:40:41.927Z,3.76
2023-01-15T23:45:39.069Z,2.80
2023-01-15T23:50:39.248Z,3.63
2023-01-15T23:55:38.402Z,3.46
